Alger, Ohio
Current Conditions -  °F | °C
As of 3:53 AM on Wednesday 28 Jan 2015 (Local Time) from KAOH Reporting Station
Haze Haze  
Wind Chill:   Ceiling: Unl
Heat Index:   Visibility: 3mi
Dew Point: -1°   Wind: 3mph
Humidity: 80%   Direction: 200°SSW
Pressure: 30.26"   Gusts: NA
Location:  40.71°N, 83.84°W
Report Text: KAOH 280853Z AUTO 20003KT 3SM HZ CLR M16/M18 A3026 RMK AO2 SLP265 T11561183 53012
Loading
Personal Weather Stations






























Interactive Weather Map New forecast layout! Learn more

10-Day Weather Forecast

Advertisements
Track Severe Weather on mobile